FABL/BFN METAR and TAF weather

Enter ICAO airport designator
Station Type Date Time Source
FABL METAR 2022/11/26 09:00 UTC NOAA

FABL 260900Z 32018KT 290V350 9999 SCT030 FEW035TCU 26/13 Q1018 NOSIG


Station Type Date Time Source
FABL Decoded METAR 2022/11/26 09:00 UTC NOAA

Bloemfontein, Bloemfontein Airport, South Africa (FABL) 29-06S 026-18E 1400M
Nov 26, 2022 - 04:00 AM EST / 2022.11.26 0900 UTC
Wind: from the NW (320 degrees) at 21 MPH (18 KT) (direction variable):0
Visibility: greater than 7 mile(s):0
Sky conditions: partly cloudy
Weather: Towering cumulus clouds observed
Temperature: 78 F (26 C)
Dew Point: 55 F (13 C)
Relative Humidity: 44%
Pressure (altimeter): 30.06 in. Hg (1018 hPa)
ob: FABL 260900Z 32018KT 290V350 9999 SCT030 FEW035TCU 26/13 Q1018 NOSIG
cycle: 9

Station Type Date Time Source
FABL TAF 2022/11/26 06:09 UTC NOAA

TAF FABL 260400Z 2606/2706 34012KT CAVOK TX27/2612Z TN11/2704Z PROB30
TEMPO 2610/2612 FEW030TCU PROB30
TEMPO 2612/2617 -TSRA FEW030CB
FM261800 09010KT 9999 SCT015

Example: see airport list